This is the latest recevied weather packets stored in our database for station/object VK6DUG. If no packets are shown the sender has not sent any weather packets the latest 10 day(s).
| Time | Temp. | Humidity | Pressure | Rain* | Wind** | Luminosity | Snow |
|---|---|---|---|---|---|---|---|
| 1778253033 | 12.22° C | 69% | 1029.7 hPa | 0 mm | - | 0 W/m² | - |
| 1778252429 | 12.78° C | 68% | 1029.8 hPa | 0 mm | - | 0 W/m² | - |
| 1778251825 | 13.33° C | 65% | 1029.7 hPa | 0 mm | - | 0 W/m² | - |
| 1778251221 | 13.89° C | 63% | 1029.8 hPa | 0 mm | - | 0 W/m² | - |
| 1778250617 | 14.44° C | 61% | 1029.8 hPa | 0 mm | - | 0 W/m² | - |
| 1778250034 | 15° C | 59% | 1029.8 hPa | 0 mm | - | 0 W/m² | - |
| 1778249430 | 15° C | 58% | 1029.6 hPa | 0 mm | - | 0 W/m² | - |
| 1778248826 | 15° C | 60% | 1029.8 hPa | 0 mm | - | 0 W/m² | - |
| 1778248222 | 14.44° C | 63% | 1029.8 hPa | 0 mm | - | 0 W/m² | - |
| 1778247618 | 14.44° C | 65% | 1029.9 hPa | 0 mm | - | 0 W/m² | - |
| 1778247034 | 15° C | 62% | 1029.9 hPa | 0 mm | - | 0 W/m² | - |
| 1778246432 | 14.44° C | 65% | 1029.8 hPa | 0 mm | - | 0 W/m² | - |
| 1778245830 | 15° C | 63% | 1029.7 hPa | 0 mm | - | 0 W/m² | - |
| 1778245225 | 15.56° C | 62% | 1029.8 hPa | 0 mm | - | 0 W/m² | - |
| 1778244622 | 15.56° C | 60% | 1029.6 hPa | 0 mm | - | 0 W/m² | - |
| 1778244020 | 16.11° C | 58% | 1029.5 hPa | 0 mm | - | 0 W/m² | - |
| 1778243416 | 16.67° C | 58% | 1029.6 hPa | 0 mm | - | 0 W/m² | - |
| 1778242834 | 16.67° C | 58% | 1029.5 hPa | 0 mm | - | 0 W/m² | - |
| 1778242230 | 16.11° C | 60% | 1029.4 hPa | 0 mm | - | 0 W/m² | - |
| 1778241627 | 15.56° C | 61% | 1029.5 hPa | 0 mm | - | 0 W/m² | - |
| 1778241024 | 16.11° C | 60% | 1029.6 hPa | 0 mm | - | 0 W/m² | - |
| 1778240420 | 15.56° C | 62% | 1029.6 hPa | 0 mm | - | 0 W/m² | - |
| 1778239818 | 15° C | 64% | 1029.6 hPa | 0 mm | - | 0 W/m² | - |
| 1778239235 | 15° C | 64% | 1029.6 hPa | 0 mm | - | 0 W/m² | - |
| 1778238630 | 15.56° C | 63% | 1029.6 hPa | 0 mm | - | 0 W/m² | - |
* Rain latest hour (hover to see other rain measurements)
** Current wind speed in m/s (hover to see current wind gust speed)